Latest Weather Observations for Troughton Island

IDW60801

Issued at 5:03 am WST Tuesday 7 December 2021 (issued every 10 minutes, with the page automatically refreshed every 10 minutes)

About weather observations | Map of weather stations | Latest weather observations for WA | Other Formats
Station Details ID: 001007 Name: TROUGHTON ISLAND Lat: -13.75 Lon: 126.15 Height: 6.0 m
Data from the previous 72 hours. | See also: Recent months at Troughton Island
Date/Time
WST
Temp
°C
App
Temp
°C
Dew
Point
°C
Rel
Hum
%
Delta-T
°C
Wind Press
QNH
hPa
Press
MSL
hPa
Rain since
9am
mm
Dir  Spd
km/h
Gust
km/h
Spd
kts
Gust
kts
07/05:00am 29.9 32.2 25.0 75 3.4 W 22 28 12 15 1007.4 1007.3 0.0
07/04:30am 29.8 31.4 25.1 76 3.3 W 26 32 14 17 1006.8 1006.7 0.0
07/04:00am 30.0 31.3 25.3 76 3.3 W 28 32 15 17 1006.7 1006.6 0.0
07/03:30am 30.0 31.3 24.6 73 3.8 W 26 32 14 17 1006.4 1006.3 0.0
07/03:00am 29.8 32.1 25.1 76 3.3 W 22 26 12 14 1006.3 1006.2 0.0
07/02:30am 29.9 32.6 25.0 75 3.4 W 20 24 11 13 1006.5 1006.4 0.0
07/02:00am 30.0 32.4 24.6 73 3.8 W 20 30 11 16 1006.6 1006.5 0.0
07/01:30am 29.7 31.7 24.6 74 3.6 WNW 22 28 12 15 1006.5 1006.4 0.0
07/01:00am 29.8 30.8 24.7 74 3.6 WNW 28 32 15 17 1006.6 1006.5 0.0
07/12:30am 29.8 30.8 24.7 74 3.6 WNW 28 32 15 17 1007.0 1006.9 0.0
07/12:00am 29.7 30.6 24.6 74 3.6 WNW 28 33 15 18 1006.8 1006.7 0.0
 
Date/Time
WST
Temp
°C
App
Temp
°C
Dew
Point
°C
Rel
Hum
%
Delta-T
°C
Wind Press
QNH
hPa
Press
MSL
hPa
Rain since
9am
mm
Dir  Spd
km/h
Gust
km/h
Spd
kts
Gust
kts
06/11:30pm 29.6 30.8 25.1 77 3.2 WNW 28 32 15 17 1006.6 1006.5 0.0
06/11:00pm 29.6 31.0 25.4 78 3.0 WNW 28 33 15 18 1006.8 1006.7 0.0
06/10:30pm 29.6 31.0 25.4 78 3.0 WNW 28 33 15 18 1006.4 1006.3 0.0
06/10:00pm 29.5 30.9 24.8 76 3.3 WNW 26 30 14 16 1006.4 1006.3 0.0
06/09:30pm 29.6 32.0 25.8 80 2.7 WNW 24 28 13 15 1006.6 1006.5 0.0
06/09:00pm 29.5 31.7 25.5 79 2.8 WNW 24 28 13 15 1006.7 1006.6 0.0
06/08:30pm 29.5 31.7 25.5 79 2.8 W 24 28 13 15 1006.6 1006.5 0.0
06/08:00pm 29.5 31.8 25.0 77 3.2 WNW 22 26 12 14 1006.4 1006.3 0.0
06/07:30pm 29.4 31.4 25.2 78 3.0 WNW 24 28 13 15 1006.1 1006.0 0.0
06/07:00pm 29.5 31.8 25.0 77 3.2 WNW 22 26 12 14 1005.4 1005.3 0.0
06/06:30pm 29.6 31.9 24.5 74 3.6 WNW 20 24 11 13 1005.4 1005.3 0.0
06/06:00pm 29.8 32.3 24.7 74 3.6 WNW 20 24 11 13 1005.0 1004.9 0.0
06/05:30pm 30.1 32.6 24.7 73 3.8 WNW 20 26 11 14 1004.4 1004.3 0.0
06/05:00pm 30.4 32.3 25.0 73 3.8 WNW 24 32 13 17 1004.1 1004.0 0.0
06/04:30pm 30.5 31.8 24.6 70 4.1 WNW 26 30 14 16 1003.9 1003.8 0.0
06/04:00pm 31.2 32.1 24.6 68 4.6 WNW 28 32 15 17 1003.9 1003.8 0.0
06/03:30pm 31.4 32.8 24.8 68 4.6 WNW 26 32 14 17 1004.0 1003.9 0.0
06/03:00pm 31.7 33.4 25.3 69 4.5 WNW 26 30 14 16 1004.2 1004.1 0.0
06/02:30pm 31.4 32.4 24.8 68 4.6 WNW 28 33 15 18 1004.2 1004.1 0.0
06/02:00pm 32.4 33.4 24.2 62 5.7 WNW 26 30 14 16 1004.2 1004.1 0.0
06/01:30pm 32.1 33.6 24.4 63 5.4 NW 24 28 13 15 1004.4 1004.3 0.0
06/01:00pm 32.2 34.0 24.8 65 5.2 NNW 24 30 13 16 1004.7 1004.6 0.0
06/12:30pm 31.4 33.2 24.8 68 4.6 NNW 24 30 13 16 1005.1 1005.0 0.0
06/12:00pm 32.4 34.3 24.4 62 5.6 NW 22 28 12 15 1006.0 1005.9 0.0
06/11:30am 30.4 33.6 24.3 70 4.3 N 15 19 8 10 1006.9 1006.8 0.0
06/11:00am 30.0 33.7 23.2 67 4.7 ESE 9 13 5 7 1007.6 1007.5 0.0
06/10:30am 28.8 32.6 23.5 73 3.6 E 9 13 5 7 1008.4 1008.3 0.0
06/10:00am 29.5 31.9 23.7 71 4.0 NE 17 22 9 12 1008.3 1008.2 0.0
06/09:30am 29.7 32.1 24.3 73 3.8 NNE 19 22 10 12 1008.5 1008.4 0.0
06/09:00am 28.5 30.5 24.5 79 2.8 NE 22 28 12 15 1009.0 1008.9 1.2
06/08:30am 28.2 28.8 24.2 79 2.8 NE 28 35 15 19 1008.6 1008.5 1.2
06/08:00am 27.4 29.2 24.8 86 1.8 NE 24 32 13 17 1009.0 1008.9 1.2
06/07:52am 27.0 27.9 24.6 87 1.7 NE 28 35 15 19 1009.0 1008.9 1.2
06/07:42am 26.8 26.7 24.5 87 1.6 NE 33 41 18 22 1008.7 1008.6 1.2
06/07:30am 26.9 26.3 25.5 92 1.0 NE 39 46 21 25 1008.4 1008.3 1.2
06/07:20am 26.7 25.3 25.5 93 0.8 NE 43 54 23 29 1008.6 1008.5 1.2
06/07:00am 26.7 24.5 25.1 91 1.1 NE 46 57 25 31 1008.0 1007.9 0.0
06/06:42am 28.1 30.1 24.5 81 2.5 ENE 22 50 12 27 1008.5 1008.4 0.0
06/06:30am 30.7 35.1 26.2 77 3.2 ENE 15 19 8 10 1008.4 1008.3 0.0
06/06:00am 30.5 37.1 26.4 79 2.9 SE 4 7 2 4 1007.6 1007.5 0.0
06/05:30am 29.8 35.6 26.6 83 2.3 SSE 9 13 5 7 1006.8 1006.7 0.0
06/05:00am 30.2 33.6 25.9 78 3.1 WNW 19 20 10 11 1006.3 1006.2 0.0
06/04:30am 30.1 33.8 26.3 80 2.7 NW 19 24 10 13 1005.5 1005.4 0.0
06/04:00am 30.0 33.6 26.4 81 2.6 NW 20 24 11 13 1005.0 1004.9 0.0
06/03:30am 29.8 33.1 26.0 80 2.7 WNW 20 24 11 13 1004.8 1004.7 0.0
06/03:00am 29.8 33.6 26.4 82 2.4 WNW 19 24 10 13 1005.0 1004.9 0.0
06/02:30am 30.2 33.6 26.1 79 2.9 WNW 20 26 11 14 1004.9 1004.8 0.0
06/02:00am 30.4 34.1 26.3 79 2.9 W 19 20 10 11 1005.5 1005.4 0.0
06/01:30am 30.4 34.5 26.3 79 2.9 WSW 17 22 9 12 1006.2 1006.1 0.0
06/01:00am 30.3 33.5 26.5 80 2.7 WNW 22 28 12 15 1005.4 1005.3 0.0
06/12:30am 30.3 32.5 26.0 78 3.1 WNW 26 30 14 16 1005.1 1005.0 0.0
06/12:00am 30.3 31.6 26.5 80 2.7 WNW 32 35 17 19 1005.1 1005.0 0.0
 
Date/Time
WST
Temp
°C
App
Temp
°C
Dew
Point
°C
Rel
Hum
%
Delta-T
°C
Wind Press
QNH
hPa
Press
MSL
hPa
Rain since
9am
mm
Dir  Spd
km/h
Gust
km/h
Spd
kts
Gust
kts
05/11:30pm 30.3 32.5 26.7 81 2.6 WNW 28 35 15 19 1005.9 1005.8 0.0
05/11:00pm 30.4 32.7 26.8 81 2.6 WNW 28 32 15 17 1006.2 1006.1 0.0
05/10:30pm 30.4 32.7 26.8 81 2.6 WNW 28 32 15 17 1006.8 1006.7 0.0
05/10:00pm 30.4 33.3 26.6 80 2.7 W 24 30 13 16 1006.9 1006.8 0.0
05/09:30pm 30.5 32.7 26.7 80 2.7 W 28 32 15 17 1006.7 1006.6 0.0
05/09:00pm 30.4 33.0 26.6 80 2.7 WNW 26 32 14 17 1006.6 1006.5 0.0
05/08:30pm 30.4 32.6 26.6 80 2.7 WNW 28 32 15 17 1006.2 1006.1 0.0
05/08:00pm 30.5 32.4 26.2 78 3.1 WNW 28 33 15 18 1005.8 1005.7 0.0
05/07:30pm 30.6 32.1 26.1 77 3.2 WNW 30 33 16 18 1005.7 1005.6 0.0
05/07:00pm 30.6 32.2 25.7 75 3.5 WNW 28 32 15 17 1005.6 1005.5 0.0
05/06:30pm 30.7 33.0 26.2 77 3.2 WNW 26 30 14 16 1005.6 1005.5 0.0
05/06:00pm 30.9 33.2 26.2 76 3.4 W 26 32 14 17 1005.0 1004.9 0.0
05/05:30pm 31.4 34.1 25.7 71 4.1 WSW 22 26 12 14 1005.1 1005.0 0.0
05/05:00pm 32.2 35.3 26.3 71 4.2 W 22 28 12 15 1005.0 1004.9 0.0
05/04:30pm 32.7 34.9 26.0 68 4.8 W 26 30 14 16 1004.9 1004.8 0.0
05/04:00pm 33.0 35.4 26.3 68 4.8 W 26 32 14 17 1004.8 1004.7 0.0
05/03:30pm 33.6 35.4 26.1 65 5.4 W 28 33 15 18 1004.7 1004.6 0.0
05/03:00pm 33.5 35.3 26.0 65 5.4 W 28 33 15 18 1004.5 1004.4 0.0
05/02:30pm 33.6 35.4 26.1 65 5.4 WSW 28 32 15 17 1004.5 1004.4 0.0
05/02:00pm 33.6 36.4 25.8 63 5.6 W 22 28 12 15 1005.2 1005.1 0.0
05/01:30pm 34.1 36.9 25.8 62 5.9 WSW 22 26 12 14 1005.6 1005.5 0.0
05/01:00pm 33.5 36.0 26.0 65 5.4 WSW 24 28 13 15 1006.3 1006.2 0.0
05/12:30pm 33.6 36.4 25.8 63 5.6 WSW 22 26 12 14 1006.7 1006.6 0.0
05/12:00pm 33.8 36.9 26.3 65 5.4 W 22 28 12 15 1007.1 1007.0 0.0
05/11:30am 33.2 36.4 26.5 68 4.8 WSW 22 26 12 14 1007.4 1007.3 0.0
05/11:00am 33.9 37.1 26.4 65 5.4 WSW 22 28 12 15 1007.7 1007.6 0.0
05/10:30am 33.6 36.2 26.1 65 5.4 WSW 24 30 13 16 1007.9 1007.8 0.0
05/10:00am 33.6 36.0 26.4 66 5.2 SW 26 30 14 16 1008.3 1008.2 0.0
05/09:30am 33.7 37.3 27.0 68 4.9 WSW 22 26 12 14 1008.6 1008.5 0.0
05/09:00am 33.3 36.0 26.3 66 5.0 WSW 24 28 13 15 1008.8 1008.7 0.0
05/08:30am 32.8 35.4 26.1 68 4.8 WSW 24 26 13 14 1008.8 1008.7 0.0
05/08:00am 32.8 35.9 26.8 70 4.3 WSW 24 28 13 15 1008.7 1008.6 0.0
05/07:30am 32.0 35.2 26.5 72 4.0 W 22 28 12 15 1008.6 1008.5 0.0
05/07:00am 32.0 35.5 26.8 74 3.8 WSW 22 28 12 15 1008.3 1008.2 0.0
05/06:30am 31.2 34.4 26.5 76 3.4 W 22 28 12 15 1008.1 1008.0 0.0
05/06:00am 30.5 33.7 26.4 79 2.9 WNW 22 26 12 14 1007.8 1007.7 0.0
05/05:30am 30.2 33.4 26.4 80 2.7 WNW 22 28 12 15 1007.5 1007.4 0.0
05/05:00am 30.0 33.7 26.6 82 2.4 W 20 22 11 12 1007.1 1007.0 0.0
05/04:30am 30.0 33.4 26.2 80 2.7 W 20 26 11 14 1006.8 1006.7 0.0
05/04:00am 30.0 33.0 26.2 80 2.7 WNW 22 26 12 14 1006.6 1006.5 0.0
05/03:30am 30.1 33.5 26.7 82 2.4 WNW 22 26 12 14 1006.4 1006.3 0.0
05/03:00am 30.1 33.5 26.7 82 2.4 WNW 22 26 12 14 1006.3 1006.2 0.0
05/02:30am 30.1 33.7 26.5 81 2.6 WNW 20 24 11 13 1006.4 1006.3 0.0
05/02:00am 30.1 33.6 26.3 80 2.7 NW 20 26 11 14 1006.4 1006.3 0.0
05/01:30am 30.1 33.7 26.5 81 2.6 WNW 20 24 11 13 1006.6 1006.5 0.0
05/01:00am 30.2 33.5 26.6 81 2.6 WNW 22 26 12 14 1006.9 1006.8 0.0
05/12:30am 30.2 33.2 26.1 79 2.9 WNW 22 24 12 13 1007.1 1007.0 0.0
05/12:00am 30.3 33.7 26.2 79 2.9 WNW 20 24 11 13 1007.5 1007.4 0.0
 
Date/Time
WST
Temp
°C
App
Temp
°C
Dew
Point
°C
Rel
Hum
%
Delta-T
°C
Wind Press
QNH
hPa
Press
MSL
hPa
Rain since
9am
mm
Dir  Spd
km/h
Gust
km/h
Spd
kts
Gust
kts
04/11:30pm 30.3 33.6 26.0 78 3.1 NW 20 24 11 13 1007.7 1007.6 0.0
04/11:00pm 30.3 33.7 26.2 79 2.9 NW 20 26 11 14 1008.0 1007.9 0.0
04/10:30pm 30.4 33.0 26.1 78 3.1 NW 24 28 13 15 1008.0 1007.9 0.0
04/10:00pm 30.5 33.2 26.2 78 3.1 WNW 24 28 13 15 1008.5 1008.4 0.0
04/09:30pm 30.6 34.4 26.7 80 2.8 WNW 20 26 11 14 1008.6 1008.5 0.0
04/09:00pm 30.6 34.0 26.7 80 2.8 WNW 22 26 12 14 1008.5 1008.4 0.0
04/08:30pm 30.5 34.1 26.4 79 2.9 WNW 20 26 11 14 1008.2 1008.1 0.0
04/08:00pm 30.5 33.5 26.7 80 2.7 WNW 24 28 13 15 1008.0 1007.9 0.0
04/07:30pm 30.4 33.3 26.6 80 2.7 NW 24 26 13 14 1007.4 1007.3 0.0
04/07:00pm 30.4 33.3 26.6 80 2.7 NW 24 28 13 15 1007.2 1007.1 0.0
04/06:30pm 30.5 33.3 26.9 81 2.6 NW 26 30 14 16 1006.9 1006.8 0.0
04/06:00pm 30.5 33.6 26.9 81 2.6 NW 24 28 13 15 1006.7 1006.6 0.0
04/05:30pm 30.6 34.0 26.7 80 2.8 NW 22 26 12 14 1005.9 1005.8 0.0
04/05:00pm 30.9 33.5 26.6 78 3.1 NW 26 32 14 17 1005.9 1005.8 0.0
04/04:30pm 31.3 33.8 27.0 78 3.1 NW 28 33 15 18 1005.4 1005.3 0.0
04/04:00pm 31.6 33.9 26.8 75 3.5 NW 28 33 15 18 1005.2 1005.1 0.0
04/03:30pm 32.0 34.7 26.8 74 3.7 NW 26 30 14 16 1005.1 1005.0 0.0
04/03:00pm 32.7 35.2 26.5 70 4.5 NW 26 32 14 17 1005.2 1005.1 0.0
04/02:30pm 33.1 36.0 26.6 68 4.7 WNW 24 30 13 16 1005.1 1005.0 0.0
04/02:00pm 33.3 37.1 26.8 68 4.7 W 20 26 11 14 1005.5 1005.4 0.0
04/01:30pm 33.2 36.8 26.5 68 4.8 W 20 22 11 12 1006.2 1006.1 0.0
04/01:00pm 33.7 37.5 26.7 67 5.1 W 20 24 11 13 1006.6 1006.5 0.0
04/12:30pm 33.8 37.5 26.3 65 5.4 WSW 19 22 10 12 1006.8 1006.7 0.0
04/12:00pm 34.1 37.6 26.3 64 5.6 W 20 26 11 14 1007.2 1007.1 0.0
04/11:30am 33.7 37.3 27.0 68 4.9 W 22 24 12 13 1007.3 1007.2 0.0
04/11:00am 33.5 37.0 26.8 68 4.8 W 22 26 12 14 1007.6 1007.5 0.0
04/10:30am 33.1 36.6 26.9 70 4.5 WSW 22 28 12 15 1008.0 1007.9 0.0
04/10:00am 33.3 36.8 26.8 68 4.7 SW 22 26 12 14 1008.1 1008.0 0.0
04/09:30am 33.1 36.8 26.6 68 4.7 SW 20 24 11 13 1008.5 1008.4 0.0
04/09:00am 33.2 36.8 27.0 70 4.5 SW 22 28 12 15 1008.6 1008.5 0.0
04/08:30am 32.6 36.2 26.4 70 4.5 WSW 20 24 11 13 1008.6 1008.5 0.0
04/08:00am 32.8 36.6 27.3 73 4.0 WSW 22 26 12 14 1009.0 1008.9 0.0
04/07:30am 31.7 34.4 26.3 73 3.9 WSW 24 30 13 16 1008.9 1008.8 0.0
04/07:00am 31.5 34.7 26.5 75 3.6 WSW 22 28 12 15 1008.8 1008.7 0.0
04/06:30am 31.0 34.1 26.9 79 3.0 WSW 24 28 13 15 1008.6 1008.5 0.0
04/06:00am 30.3 33.3 26.7 81 2.6 WSW 24 28 13 15 1008.5 1008.4 0.0
04/05:30am 29.9 32.9 26.7 83 2.3 WSW 24 30 13 16 1007.9 1007.8 0.0

Other formats

Comma delimited format used in spreadsheet applications
http://www.bom.gov.au/fwo/IDW60801/IDW60801.94102.axf

JavaScript Object Notation format (JSON) in row-major order
http://www.bom.gov.au/fwo/IDW60801/IDW60801.94102.json

Data quality

Most of these data are generated automatically and are frequently updated. Quality checks on data are not normally performed. It is possible for incorrect values to appear. Refer to information at About Latest Weather Observations and please check the disclaimer before using these data.